createdAt,value
2022-10-10T00:00:28.823Z,27.80
2022-10-10T00:03:18.747Z,27.10
2022-10-10T00:06:08.025Z,31.45
2022-10-10T00:08:58.137Z,30.40
2022-10-10T00:11:46.662Z,28.33
2022-10-10T00:14:35.433Z,28.17
2022-10-10T00:17:23.922Z,30.73
2022-10-10T00:20:13.422Z,28.30
2022-10-10T00:23:02.113Z,29.67
2022-10-10T00:25:52.500Z,28.17
2022-10-10T00:28:41.107Z,28.42
2022-10-10T00:31:30.040Z,27.05
2022-10-10T00:34:19.050Z,30.58
2022-10-10T00:37:07.674Z,32.10
2022-10-10T00:39:56.251Z,32.42
2022-10-10T00:42:46.101Z,28.48
2022-10-10T00:45:39.843Z,27.92
2022-10-10T00:48:32.556Z,33.53
2022-10-10T00:51:21.555Z,31.88
2022-10-10T00:54:13.052Z,28.35
2022-10-10T00:57:07.055Z,30.20
2022-10-10T00:59:57.853Z,27.33
2022-10-10T01:02:46.690Z,27.75
2022-10-10T01:05:35.969Z,30.55
2022-10-10T01:08:24.657Z,27.33
2022-10-10T01:11:27.867Z,29.13
2022-10-10T01:14:36.726Z,29.77
2022-10-10T01:17:31.932Z,28.77
2022-10-10T01:20:36.656Z,30.15
2022-10-10T01:24:02.342Z,31.00
2022-10-10T01:27:25.459Z,31.80
2022-10-10T01:30:22.432Z,33.65
2022-10-10T01:33:17.149Z,32.30
2022-10-10T01:36:14.317Z,34.25
2022-10-10T01:39:10.987Z,30.92
2022-10-10T01:42:04.450Z,32.03
2022-10-10T01:44:54.051Z,37.08
2022-10-10T01:47:44.519Z,29.85
2022-10-10T01:50:38.166Z,29.15
2022-10-10T01:53:34.149Z,28.80
2022-10-10T01:56:34.384Z,30.88
2022-10-10T01:59:36.082Z,32.90
2022-10-10T02:02:34.058Z,29.50
2022-10-10T02:05:29.875Z,36.20
2022-10-10T02:08:23.149Z,34.90
2022-10-10T02:11:13.291Z,33.78
2022-10-10T02:14:06.491Z,33.40
2022-10-10T02:16:56.900Z,33.17
2022-10-10T02:19:50.504Z,32.70
2022-10-10T02:22:41.708Z,33.80
2022-10-10T02:25:36.635Z,33.90
2022-10-10T02:28:30.320Z,34.28
2022-10-10T02:31:26.413Z,35.83
2022-10-10T02:34:19.620Z,35.20
2022-10-10T02:37:13.637Z,31.38
2022-10-10T02:40:06.043Z,31.87
2022-10-10T02:42:54.985Z,28.97
2022-10-10T02:45:44.238Z,32.10
2022-10-10T02:48:33.068Z,31.03
2022-10-10T02:51:21.758Z,30.67
2022-10-10T02:54:10.520Z,28.70
2022-10-10T02:57:00.478Z,31.97
2022-10-10T02:59:49.052Z,31.93
2022-10-10T03:02:37.621Z,29.58
2022-10-10T03:05:26.230Z,31.07
2022-10-10T03:08:14.950Z,27.83
2022-10-10T03:11:03.565Z,28.15
2022-10-10T03:13:53.790Z,28.83
2022-10-10T03:16:42.373Z,27.45
2022-10-10T03:19:31.190Z,27.63
2022-10-10T03:22:19.742Z,32.33
2022-10-10T03:25:08.897Z,30.77
2022-10-10T03:27:57.760Z,29.97
2022-10-10T03:30:48.068Z,28.23
2022-10-10T03:33:36.952Z,29.27
2022-10-10T03:36:25.577Z,26.83
2022-10-10T03:39:14.171Z,25.33
2022-10-10T03:42:02.862Z,30.67
2022-10-10T03:44:51.444Z,26.57
2022-10-10T03:47:41.376Z,24.37
2022-10-10T03:50:30.661Z,25.40
2022-10-10T03:53:19.486Z,28.60
2022-10-10T03:56:08.204Z,24.60
2022-10-10T03:59:00.640Z,24.97
2022-10-10T04:01:49.791Z,25.93
2022-10-10T04:04:39.842Z,24.13
2022-10-10T04:07:28.435Z,22.87
2022-10-10T04:10:17.180Z,23.97
2022-10-10T04:13:06.065Z,22.93
2022-10-10T04:15:55.396Z,24.23
2022-10-10T04:18:43.965Z,23.73
2022-10-10T04:21:34.100Z,24.13
2022-10-10T04:24:22.700Z,23.90
2022-10-10T04:27:11.762Z,22.70
2022-10-10T04:30:00.636Z,25.10
2022-10-10T04:32:49.558Z,21.70
2022-10-10T04:35:38.386Z,25.50
2022-10-10T04:38:29.344Z,21.00
2022-10-10T04:41:18.130Z,19.10
2022-10-10T04:44:06.722Z,23.07
2022-10-10T04:46:55.256Z,21.13
2022-10-10T04:49:43.788Z,23.40
2022-10-10T04:52:32.378Z,22.73
2022-10-10T04:55:22.290Z,21.60
2022-10-10T04:58:11.247Z,26.27
2022-10-10T05:00:59.980Z,25.00
2022-10-10T05:03:48.601Z,22.17
2022-10-10T05:06:37.169Z,28.33
2022-10-10T05:09:25.809Z,23.93
2022-10-10T05:12:15.814Z,24.00
2022-10-10T05:15:04.508Z,22.33
2022-10-10T05:17:53.229Z,22.57
2022-10-10T05:20:43.955Z,19.60
2022-10-10T05:23:32.482Z,22.40
2022-10-10T05:26:21.335Z,21.37
2022-10-10T05:29:11.648Z,23.97
2022-10-10T05:32:00.284Z,25.70
2022-10-10T05:34:49.129Z,23.93
2022-10-10T05:37:37.831Z,25.77
2022-10-10T05:40:26.455Z,25.03
2022-10-10T05:43:15.774Z,23.60
2022-10-10T05:46:06.429Z,22.47
2022-10-10T05:48:55.397Z,25.13
2022-10-10T05:51:44.266Z,22.33
2022-10-10T05:54:32.899Z,21.87
2022-10-10T05:57:21.607Z,22.67
2022-10-10T06:00:11.208Z,25.23
2022-10-10T06:03:01.165Z,28.77
2022-10-10T06:05:52.938Z,23.77
2022-10-10T06:08:41.788Z,22.20
2022-10-10T06:11:30.350Z,25.13
2022-10-10T06:14:18.932Z,25.77
2022-10-10T06:17:07.559Z,24.30
2022-10-10T06:19:57.536Z,24.23
2022-10-10T06:22:46.204Z,23.00
2022-10-10T06:25:40.595Z,25.60
2022-10-10T06:28:30.133Z,24.63
2022-10-10T06:31:19.291Z,29.80
2022-10-10T06:34:08.180Z,27.47
2022-10-10T06:36:58.084Z,25.53
2022-10-10T06:39:46.705Z,26.80
2022-10-10T06:42:35.410Z,26.03
2022-10-10T06:45:26.376Z,31.53
2022-10-10T06:48:16.486Z,25.30
2022-10-10T06:51:06.859Z,27.00
2022-10-10T06:53:58.981Z,26.73
2022-10-10T06:56:48.614Z,29.73
2022-10-10T06:59:37.163Z,26.80
2022-10-10T07:02:27.288Z,27.93
2022-10-10T07:05:18.136Z,31.57
2022-10-10T07:08:06.830Z,28.80
2022-10-10T07:10:57.014Z,26.80
2022-10-10T07:13:45.673Z,27.67
2022-10-10T07:16:34.739Z,24.27
2022-10-10T07:19:24.973Z,25.47
2022-10-10T07:22:13.536Z,25.20
2022-10-10T07:25:02.495Z,24.43
2022-10-10T07:27:52.392Z,24.07
2022-10-10T07:30:43.482Z,26.27
2022-10-10T07:33:36.889Z,26.17
2022-10-10T07:36:25.760Z,24.80
2022-10-10T07:39:17.096Z,23.33
2022-10-10T07:42:08.487Z,25.80
2022-10-10T07:44:58.523Z,24.20
2022-10-10T07:47:47.751Z,26.50
2022-10-10T07:50:36.411Z,24.88
2022-10-10T07:53:25.374Z,23.57
2022-10-10T07:56:14.194Z,26.58
2022-10-10T07:59:02.803Z,22.98
2022-10-10T08:01:53.005Z,22.02
2022-10-10T08:04:41.635Z,24.77
2022-10-10T08:07:30.141Z,25.42
2022-10-10T08:10:18.853Z,23.60
2022-10-10T08:13:07.735Z,23.63
2022-10-10T08:15:56.369Z,22.02
2022-10-10T08:18:46.612Z,18.85
2022-10-10T08:21:36.177Z,21.60
2022-10-10T08:24:24.813Z,22.20
2022-10-10T08:27:14.625Z,17.35
2022-10-10T08:30:03.237Z,16.95
2022-10-10T08:32:52.458Z,16.45
2022-10-10T08:35:43.082Z,18.95
2022-10-10T08:38:31.576Z,18.80
2022-10-10T08:41:27.232Z,14.93
2022-10-10T08:44:21.639Z,13.75
2022-10-10T08:47:16.674Z,14.25
2022-10-10T08:50:08.363Z,16.15
2022-10-10T08:53:02.302Z,13.80
2022-10-10T08:55:53.439Z,17.50
2022-10-10T08:58:45.276Z,12.80
2022-10-10T09:01:36.590Z,11.23
2022-10-10T09:04:45.128Z,13.50
2022-10-10T09:07:46.614Z,15.25
2022-10-10T09:10:45.802Z,12.55
2022-10-10T09:13:37.696Z,15.10
2022-10-10T09:16:37.498Z,10.00
2022-10-10T09:19:36.330Z,13.77
2022-10-10T09:22:29.933Z,12.00
2022-10-10T09:25:23.610Z,13.57
2022-10-10T09:28:17.913Z,11.02
2022-10-10T09:31:12.911Z,10.98
2022-10-10T09:34:06.156Z,10.98
2022-10-10T09:36:59.271Z,10.50
2022-10-10T09:39:53.794Z,11.77
2022-10-10T09:42:45.633Z,12.45
2022-10-10T09:45:40.380Z,13.23
2022-10-10T09:48:32.921Z,10.27
2022-10-10T09:51:22.429Z,11.00
2022-10-10T09:54:12.270Z,9.40
2022-10-10T09:57:01.044Z,8.30
2022-10-10T09:59:49.673Z,11.23
2022-10-10T10:02:39.558Z,9.90
2022-10-10T10:05:29.802Z,9.63
2022-10-10T10:08:21.428Z,13.57
2022-10-10T10:11:28.501Z,7.63
2022-10-10T10:14:38.326Z,7.70
2022-10-10T10:17:26.982Z,5.70
2022-10-10T10:20:36.478Z,6.03
2022-10-10T10:23:27.455Z,4.63
2022-10-10T10:26:20.173Z,4.38
2022-10-10T10:29:28.897Z,4.72
2022-10-10T10:32:26.406Z,5.63
2022-10-10T10:35:24.218Z,7.32
2022-10-10T10:38:28.494Z,6.82
2022-10-10T10:41:26.354Z,6.63
2022-10-10T10:44:30.951Z,8.25
2022-10-10T10:50:43.886Z,8.48
2022-10-10T10:53:41.658Z,6.30
2022-10-10T10:56:36.516Z,6.95
2022-10-10T11:00:25.737Z,7.65
2022-10-10T11:03:15.028Z,9.35
2022-10-10T11:06:23.620Z,5.80
2022-10-10T11:09:44.983Z,7.60
2022-10-10T11:12:43.065Z,7.45
2022-10-10T11:16:04.852Z,5.80
2022-10-10T11:19:02.830Z,6.72
2022-10-10T11:21:56.410Z,7.55
2022-10-10T11:24:51.322Z,5.03
2022-10-10T11:27:46.235Z,5.00
2022-10-10T11:30:40.680Z,4.65
2022-10-10T11:33:34.223Z,4.13
2022-10-10T11:36:25.831Z,7.15
2022-10-10T11:39:17.242Z,6.20
2022-10-10T11:42:15.538Z,4.28
2022-10-10T11:45:09.197Z,6.38
2022-10-10T11:48:04.663Z,6.13
2022-10-10T11:50:57.698Z,3.78
2022-10-10T11:53:51.041Z,3.92
2022-10-10T11:56:43.900Z,7.30
2022-10-10T11:59:39.275Z,5.15
2022-10-10T12:02:33.394Z,4.50
2022-10-10T12:05:24.429Z,4.13
2022-10-10T12:08:20.035Z,4.53
2022-10-10T12:11:18.513Z,6.07
2022-10-10T12:14:10.868Z,6.10
2022-10-10T12:17:01.757Z,6.22
2022-10-10T12:19:52.531Z,4.75
2022-10-10T12:22:41.783Z,5.40
2022-10-10T12:25:42.205Z,6.60
2022-10-10T12:28:37.183Z,5.55
2022-10-10T12:31:30.788Z,6.70
2022-10-10T12:34:42.516Z,5.10
2022-10-10T12:37:32.877Z,5.20
2022-10-10T12:40:23.560Z,6.45
2022-10-10T12:43:37.216Z,4.90
2022-10-10T12:46:31.776Z,5.57
2022-10-10T12:49:23.467Z,3.67
2022-10-10T12:52:14.879Z,5.82
2022-10-10T12:55:07.703Z,4.63
2022-10-10T12:57:58.531Z,7.38
2022-10-10T13:00:49.033Z,4.05
2022-10-10T13:03:41.176Z,4.47
2022-10-10T13:06:36.835Z,11.07
2022-10-10T13:09:32.405Z,5.65
2022-10-10T13:12:26.429Z,4.78
2022-10-10T13:15:22.427Z,5.13
2022-10-10T13:18:11.025Z,4.63
2022-10-10T13:20:59.904Z,3.90
2022-10-10T13:27:02.115Z,5.57
2022-10-10T13:29:51.028Z,2.42
2022-10-10T13:32:39.596Z,7.80
2022-10-10T13:35:32.368Z,4.40
2022-10-10T13:38:26.895Z,5.63
2022-10-10T13:41:18.656Z,3.88
2022-10-10T13:44:14.431Z,4.18
2022-10-10T13:47:36.636Z,4.15
2022-10-10T13:50:31.194Z,5.80
2022-10-10T13:53:34.435Z,3.90
2022-10-10T13:56:28.065Z,3.10
2022-10-10T13:59:16.769Z,3.17
2022-10-10T14:02:10.245Z,3.75
2022-10-10T14:04:59.988Z,3.55
2022-10-10T14:07:50.230Z,7.38
2022-10-10T14:10:38.746Z,8.45
2022-10-10T14:13:31.380Z,5.43
2022-10-10T14:16:26.268Z,5.40
2022-10-10T14:19:19.302Z,3.63
2022-10-10T14:22:07.864Z,2.72
2022-10-10T14:24:56.547Z,3.55
2022-10-10T14:27:45.114Z,5.60
2022-10-10T14:30:36.078Z,4.60
2022-10-10T14:33:25.034Z,5.43
2022-10-10T14:36:14.499Z,3.08
2022-10-10T14:39:03.127Z,4.97
2022-10-10T14:41:52.276Z,5.90
2022-10-10T14:44:40.852Z,4.80
2022-10-10T14:47:30.830Z,5.85
2022-10-10T14:50:22.254Z,7.00
2022-10-10T14:53:10.901Z,2.20
2022-10-10T14:55:59.487Z,5.57
2022-10-10T14:58:49.544Z,4.18
2022-10-10T15:01:38.250Z,3.70
2022-10-10T15:04:28.182Z,3.65
2022-10-10T15:07:17.796Z,3.65
2022-10-10T15:13:16.902Z,4.65
2022-10-10T15:16:06.037Z,5.97
2022-10-10T15:18:54.886Z,4.07
2022-10-10T15:21:45.228Z,3.60
2022-10-10T15:24:34.680Z,3.53
2022-10-10T15:27:23.351Z,4.85
2022-10-10T15:30:12.774Z,5.35
2022-10-10T15:33:01.408Z,5.55
2022-10-10T15:36:08.896Z,4.65
2022-10-10T15:38:59.956Z,5.53
2022-10-10T15:41:48.769Z,3.50
2022-10-10T15:44:38.210Z,5.47
2022-10-10T15:47:27.016Z,5.35
2022-10-10T15:50:16.070Z,6.75
2022-10-10T15:53:04.852Z,6.55
2022-10-10T15:55:54.968Z,7.88
2022-10-10T15:58:44.099Z,6.65
2022-10-10T16:01:33.388Z,5.95
2022-10-10T16:04:23.344Z,4.75
2022-10-10T16:07:26.818Z,7.32
2022-10-10T16:10:18.284Z,5.78
2022-10-10T16:13:08.430Z,6.60
2022-10-10T16:16:02.676Z,6.85
2022-10-10T16:18:52.236Z,7.72
2022-10-10T16:21:41.096Z,8.48
2022-10-10T16:24:30.714Z,8.02
2022-10-10T16:27:19.607Z,8.35
2022-10-10T16:30:12.058Z,9.45
2022-10-10T16:33:00.759Z,10.00
2022-10-10T16:35:49.444Z,9.50
2022-10-10T16:38:38.160Z,8.38
2022-10-10T16:41:46.920Z,8.30
2022-10-10T16:44:36.346Z,7.22
2022-10-10T16:47:26.255Z,6.68
2022-10-10T16:50:14.896Z,8.35
2022-10-10T16:53:03.750Z,10.18
2022-10-10T16:55:52.437Z,8.30
2022-10-10T16:58:41.421Z,11.07
2022-10-10T17:01:30.421Z,10.05
2022-10-10T17:10:45.677Z,8.65
2022-10-10T17:13:36.094Z,8.20
2022-10-10T17:20:41.037Z,9.60
2022-10-10T17:23:29.763Z,12.68
2022-10-10T17:26:22.690Z,11.98
2022-10-10T17:29:11.329Z,11.07
2022-10-10T17:32:05.564Z,10.82
2022-10-10T17:34:58.633Z,9.05
2022-10-10T17:37:47.500Z,12.52
2022-10-10T17:40:36.308Z,12.75
2022-10-10T17:43:26.738Z,13.25
2022-10-10T17:49:26.666Z,12.55
2022-10-10T17:52:21.240Z,10.60
2022-10-10T17:55:11.107Z,11.15
2022-10-10T17:58:00.051Z,14.35
2022-10-10T18:00:50.193Z,11.70
2022-10-10T18:03:39.117Z,10.93
2022-10-10T18:06:29.189Z,14.25
2022-10-10T18:09:17.924Z,12.60
2022-10-10T18:12:07.777Z,14.70
2022-10-10T18:14:58.321Z,15.32
2022-10-10T18:17:48.586Z,13.75
2022-10-10T18:20:38.582Z,15.50
2022-10-10T18:23:28.410Z,15.32
2022-10-10T18:26:19.861Z,17.05
2022-10-10T18:29:08.534Z,18.05
2022-10-10T18:31:57.589Z,16.38
2022-10-10T18:34:47.644Z,17.48
2022-10-10T18:37:36.904Z,17.35
2022-10-10T18:40:25.532Z,20.02
2022-10-10T18:43:14.240Z,16.73
2022-10-10T18:46:03.850Z,19.55
2022-10-10T18:48:54.288Z,17.50
2022-10-10T18:51:45.269Z,18.98
2022-10-10T18:54:35.887Z,19.63
2022-10-10T18:57:24.716Z,19.88
2022-10-10T19:00:14.411Z,19.38
2022-10-10T19:03:04.373Z,17.48
2022-10-10T19:05:53.195Z,15.57
2022-10-10T19:08:43.719Z,17.95
2022-10-10T19:11:39.283Z,16.92
2022-10-10T19:14:28.254Z,16.23
2022-10-10T19:17:17.264Z,15.48
2022-10-10T19:20:06.891Z,18.35
2022-10-10T19:22:58.826Z,16.20
2022-10-10T19:25:48.774Z,19.48
2022-10-10T19:28:38.618Z,17.15
2022-10-10T19:31:30.418Z,19.70
2022-10-10T19:34:19.398Z,21.17
2022-10-10T19:37:08.213Z,18.77
2022-10-10T19:39:57.044Z,19.73
2022-10-10T19:42:47.153Z,18.10
2022-10-10T19:45:40.938Z,15.18
2022-10-10T19:48:31.502Z,17.15
2022-10-10T20:00:27.520Z,19.98
2022-10-10T20:03:16.242Z,18.58
2022-10-10T20:06:06.504Z,19.52
2022-10-10T20:08:56.266Z,17.88
2022-10-10T20:11:44.910Z,17.73
2022-10-10T20:14:33.854Z,15.93
2022-10-10T20:17:24.202Z,17.27
2022-10-10T20:20:13.360Z,16.08
2022-10-10T20:23:02.925Z,18.45
2022-10-10T20:25:51.751Z,19.55
2022-10-10T20:28:42.791Z,19.48
2022-10-10T20:31:38.165Z,17.75
2022-10-10T20:34:28.594Z,18.02
2022-10-10T20:37:21.018Z,18.35
2022-10-10T20:40:10.792Z,19.92
2022-10-10T20:42:59.514Z,19.75
2022-10-10T20:45:51.450Z,19.85
2022-10-10T20:48:40.237Z,20.67
2022-10-10T20:51:30.634Z,19.17
2022-10-10T20:54:22.576Z,17.63
2022-10-10T20:57:11.313Z,18.73
2022-10-10T20:59:59.945Z,21.65
2022-10-10T21:02:49.512Z,18.83
2022-10-10T21:05:38.580Z,20.15
2022-10-10T21:08:29.974Z,20.70
2022-10-10T21:11:19.697Z,22.17
2022-10-10T21:14:12.470Z,23.80
2022-10-10T21:17:01.109Z,19.40
2022-10-10T21:19:49.843Z,21.25
2022-10-10T21:22:38.526Z,19.27
2022-10-10T21:25:28.696Z,21.27
2022-10-10T21:28:17.415Z,22.45
2022-10-10T21:31:06.919Z,19.63
2022-10-10T21:33:55.624Z,22.60
2022-10-10T21:36:44.371Z,17.85
2022-10-10T21:39:33.355Z,19.35
2022-10-10T21:42:23.397Z,22.33
2022-10-10T21:45:12.428Z,18.73
2022-10-10T21:48:01.395Z,18.85
2022-10-10T21:50:50.720Z,18.48
2022-10-10T21:53:39.414Z,21.25
2022-10-10T21:56:28.075Z,18.38
2022-10-10T21:59:18.168Z,17.35
2022-10-10T22:02:07.125Z,15.88
2022-10-10T22:08:03.528Z,16.42
2022-10-10T22:10:52.623Z,17.80
2022-10-10T22:13:41.651Z,18.67
2022-10-10T22:16:32.435Z,14.20
2022-10-10T22:19:21.081Z,16.17
2022-10-10T22:22:09.768Z,18.13
2022-10-10T22:24:58.732Z,15.65
2022-10-10T22:27:47.724Z,17.80
2022-10-10T22:30:36.588Z,13.48
2022-10-10T22:33:30.325Z,14.38
2022-10-10T22:36:19.062Z,19.33
2022-10-10T22:39:11.015Z,15.32
2022-10-10T22:41:59.604Z,15.88
2022-10-10T22:44:48.583Z,15.68
2022-10-10T22:47:37.702Z,16.25
2022-10-10T22:50:30.223Z,16.33
2022-10-10T22:53:18.891Z,14.32
2022-10-10T22:56:11.338Z,15.85
2022-10-10T22:58:59.997Z,17.05
2022-10-10T23:01:49.001Z,14.15
2022-10-10T23:04:37.944Z,17.58
2022-10-10T23:07:28.024Z,24.67
2022-10-10T23:10:20.779Z,15.02
2022-10-10T23:13:09.550Z,14.05
2022-10-10T23:15:58.389Z,15.40
2022-10-10T23:18:47.129Z,16.75
2022-10-10T23:21:35.978Z,17.52
2022-10-10T23:24:26.241Z,13.93
2022-10-10T23:27:14.804Z,15.15
2022-10-10T23:30:03.644Z,17.60
2022-10-10T23:32:52.276Z,15.57
2022-10-10T23:35:41.099Z,15.68
2022-10-10T23:38:30.180Z,14.90
2022-10-10T23:41:20.337Z,14.52
2022-10-10T23:44:08.968Z,17.98
2022-10-10T23:46:57.643Z,15.55
2022-10-10T23:49:46.483Z,16.90
2022-10-10T23:52:35.207Z,15.43
2022-10-10T23:55:23.881Z,14.00
2022-10-10T23:58:13.880Z,19.48
